sensor_id;sensor_type;location;lat;lon;timestamp;pressure;altitude;pressure_sealevel;temperature;humidity
29535;BME280;72082;52.650;8.116;2023-10-13T00:00:47;100801.78;;;15.98;100.00
29535;BME280;72082;52.650;8.116;2023-10-13T00:03:12;100804.28;;;16.01;100.00
29535;BME280;72082;52.650;8.116;2023-10-13T00:05:37;100795.56;;;16.05;100.00
29535;BME280;72082;52.650;8.116;2023-10-13T00:08:04;100784.31;;;16.08;100.00
29535;BME280;72082;52.650;8.116;2023-10-13T00:10:31;100788.56;;;16.10;100.00
29535;BME280;72082;52.650;8.116;2023-10-13T00:12:56;100779.06;;;16.11;100.00
29535;BME280;72082;52.650;8.116;2023-10-13T00:15:21;100783.25;;;16.15;100.00
29535;BME280;72082;52.650;8.116;2023-10-13T00:17:47;100773.72;;;16.17;100.00
29535;BME280;72082;52.650;8.116;2023-10-13T00:20:12;100775.38;;;16.19;100.00
29535;BME280;72082;52.650;8.116;2023-10-13T00:22:37;100773.66;;;16.20;100.00
29535;BME280;72082;52.650;8.116;2023-10-13T00:25:02;100765.81;;;16.23;100.00
29535;BME280;72082;52.650;8.116;2023-10-13T00:27:28;100775.28;;;16.24;100.00
29535;BME280;72082;52.650;8.116;2023-10-13T00:30:07;100765.75;;;16.26;100.00
29535;BME280;72082;52.650;8.116;2023-10-13T00:32:32;100768.25;;;16.29;100.00
29535;BME280;72082;52.650;8.116;2023-10-13T00:34:57;100770.75;;;16.32;100.00
29535;BME280;72082;52.650;8.116;2023-10-13T00:37:22;100758.66;;;16.32;100.00
29535;BME280;72082;52.650;8.116;2023-10-13T00:39:48;100764.66;;;16.34;100.00
29535;BME280;72082;52.650;8.116;2023-10-13T00:42:13;100762.88;;;16.36;100.00
29535;BME280;72082;52.650;8.116;2023-10-13T00:44:39;100766.31;;;16.37;100.00
29535;BME280;72082;52.650;8.116;2023-10-13T00:47:05;100755.91;;;16.38;100.00
29535;BME280;72082;52.650;8.116;2023-10-13T00:49:30;100760.22;;;16.39;100.00
29535;BME280;72082;52.650;8.116;2023-10-13T00:51:56;100749.81;;;16.41;100.00
29535;BME280;72082;52.650;8.116;2023-10-13T00:54:21;100750.59;;;16.43;100.00
29535;BME280;72082;52.650;8.116;2023-10-13T00:56:47;100748.84;;;16.45;100.00
29535;BME280;72082;52.650;8.116;2023-10-13T00:59:13;100741.09;;;16.45;100.00
29535;BME280;72082;52.650;8.116;2023-10-13T01:01:39;100741.03;;;16.46;100.00
29535;BME280;72082;52.650;8.116;2023-10-13T01:04:04;100746.13;;;16.49;100.00
29535;BME280;72082;52.650;8.116;2023-10-13T01:06:30;100737.44;;;16.52;100.00
29535;BME280;72082;52.650;8.116;2023-10-13T01:09:03;100734.84;;;16.52;100.00
29535;BME280;72082;52.650;8.116;2023-10-13T01:11:29;100733.94;;;16.54;100.00
29535;BME280;72082;52.650;8.116;2023-10-13T01:13:54;100734.81;;;16.55;100.00
29535;BME280;72082;52.650;8.116;2023-10-13T01:16:20;100736.47;;;16.56;100.00
29535;BME280;72082;52.650;8.116;2023-10-13T01:18:45;100733.03;;;16.57;100.00
29535;BME280;72082;52.650;8.116;2023-10-13T01:21:10;100739.06;;;16.57;100.00
29535;BME280;72082;52.650;8.116;2023-10-13T01:23:36;100734.66;;;16.59;100.00
29535;BME280;72082;52.650;8.116;2023-10-13T01:26:01;100726.91;;;16.59;100.00
29535;BME280;72082;52.650;8.116;2023-10-13T01:28:26;100734.66;;;16.59;100.00
29535;BME280;72082;52.650;8.116;2023-10-13T01:30:51;100738.13;;;16.60;100.00
29535;BME280;72082;52.650;8.116;2023-10-13T01:33:19;100731.16;;;16.62;100.00
29535;BME280;72082;52.650;8.116;2023-10-13T01:35:45;100727.72;;;16.61;100.00
29535;BME280;72082;52.650;8.116;2023-10-13T01:38:10;100726.81;;;16.62;100.00
29535;BME280;72082;52.650;8.116;2023-10-13T01:40:35;100728.50;;;16.63;100.00
29535;BME280;72082;52.650;8.116;2023-10-13T01:43:01;100720.72;;;16.65;100.00
29535;BME280;72082;52.650;8.116;2023-10-13T01:45:26;100714.69;;;16.64;100.00
29535;BME280;72082;52.650;8.116;2023-10-13T01:47:51;100710.38;;;16.65;100.00
29535;BME280;72082;52.650;8.116;2023-10-13T01:50:17;100715.47;;;16.66;100.00
29535;BME280;72082;52.650;8.116;2023-10-13T01:52:42;100711.22;;;16.65;100.00
29535;BME280;72082;52.650;8.116;2023-10-13T01:55:08;100709.47;;;16.66;100.00
29535;BME280;72082;52.650;8.116;2023-10-13T01:57:33;100712.03;;;16.66;100.00
29535;BME280;72082;52.650;8.116;2023-10-13T01:59:58;100705.13;;;16.66;100.00
29535;BME280;72082;52.650;8.116;2023-10-13T02:02:23;100701.75;;;16.64;100.00
29535;BME280;72082;52.650;8.116;2023-10-13T02:04:48;100689.84;;;16.59;100.00
29535;BME280;72082;52.650;8.116;2023-10-13T02:07:14;100688.19;;;16.56;100.00
29535;BME280;72082;52.650;8.116;2023-10-13T02:09:39;100688.25;;;16.55;100.00
29535;BME280;72082;52.650;8.116;2023-10-13T02:12:05;100692.50;;;16.56;100.00
29535;BME280;72082;52.650;8.116;2023-10-13T02:14:30;100687.38;;;16.54;100.00
29535;BME280;72082;52.650;8.116;2023-10-13T02:16:55;100690.81;;;16.55;100.00
29535;BME280;72082;52.650;8.116;2023-10-13T02:19:20;100683.06;;;16.55;100.00
29535;BME280;72082;52.650;8.116;2023-10-13T02:21:46;100680.47;;;16.55;100.00
29535;BME280;72082;52.650;8.116;2023-10-13T02:24:11;100686.44;;;16.57;100.00
29535;BME280;72082;52.650;8.116;2023-10-13T02:26:36;100685.59;;;16.56;100.00
29535;BME280;72082;52.650;8.116;2023-10-13T02:29:02;100671.78;;;16.57;100.00
29535;BME280;72082;52.650;8.116;2023-10-13T02:31:27;100677.81;;;16.58;100.00
29535;BME280;72082;52.650;8.116;2023-10-13T02:33:52;100668.25;;;16.60;100.00
29535;BME280;72082;52.650;8.116;2023-10-13T02:36:18;100659.63;;;16.59;100.00
29535;BME280;72082;52.650;8.116;2023-10-13T02:38:43;100656.19;;;16.59;100.00
29535;BME280;72082;52.650;8.116;2023-10-13T02:41:15;100645.84;;;16.59;100.00
29535;BME280;72082;52.650;8.116;2023-10-13T02:43:41;100645.91;;;16.57;100.00
29535;BME280;72082;52.650;8.116;2023-10-13T02:46:06;100650.22;;;16.57;100.00
29535;BME280;72082;52.650;8.116;2023-10-13T02:48:31;100641.63;;;16.56;100.00
29535;BME280;72082;52.650;8.116;2023-10-13T02:50:58;100639.94;;;16.55;100.00
29535;BME280;72082;52.650;8.116;2023-10-13T02:53:24;100639.09;;;16.55;100.00
29535;BME280;72082;52.650;8.116;2023-10-13T02:55:51;100634.78;;;16.54;100.00
29535;BME280;72082;52.650;8.116;2023-10-13T02:58:16;100633.09;;;16.53;100.00
29535;BME280;72082;52.650;8.116;2023-10-13T03:00:41;100633.97;;;16.52;100.00
29535;BME280;72082;52.650;8.116;2023-10-13T03:03:06;100632.25;;;16.52;100.00
29535;BME280;72082;52.650;8.116;2023-10-13T03:05:34;100627.09;;;16.52;100.00
29535;BME280;72082;52.650;8.116;2023-10-13T03:08:00;100633.09;;;16.53;100.00
29535;BME280;72082;52.650;8.116;2023-10-13T03:10:25;100631.34;;;16.53;100.00
29535;BME280;72082;52.650;8.116;2023-10-13T03:12:50;100627.91;;;16.53;100.00
29535;BME280;72082;52.650;8.116;2023-10-13T03:15:15;100624.44;;;16.54;100.00
29535;BME280;72082;52.650;8.116;2023-10-13T03:17:41;100624.41;;;16.55;100.00
29535;BME280;72082;52.650;8.116;2023-10-13T03:20:06;100617.47;;;16.56;100.00
29535;BME280;72082;52.650;8.116;2023-10-13T03:22:31;100616.53;;;16.58;100.00
29535;BME280;72082;52.650;8.116;2023-10-13T03:24:58;100618.25;;;16.59;100.00
29535;BME280;72082;52.650;8.116;2023-10-13T03:27:24;100606.09;;;16.61;100.00
29535;BME280;72082;52.650;8.116;2023-10-13T03:29:50;100606.97;;;16.62;100.00
29535;BME280;72082;52.650;8.116;2023-10-13T03:32:15;100608.66;;;16.63;100.00
29535;BME280;72082;52.650;8.116;2023-10-13T03:34:41;100595.72;;;16.63;100.00
29535;BME280;72082;52.650;8.116;2023-10-13T03:37:07;100609.47;;;16.63;100.00
29535;BME280;72082;52.650;8.116;2023-10-13T03:39:32;100606.88;;;16.65;100.00
29535;BME280;72082;52.650;8.116;2023-10-13T03:41:58;100601.69;;;16.65;100.00
29535;BME280;72082;52.650;8.116;2023-10-13T03:44:23;100601.63;;;16.66;100.00
29535;BME280;72082;52.650;8.116;2023-10-13T03:46:48;100596.44;;;16.68;100.00
29535;BME280;72082;52.650;8.116;2023-10-13T03:49:15;100609.31;;;16.70;100.00
29535;BME280;72082;52.650;8.116;2023-10-13T03:51:40;100595.50;;;16.71;100.00
29535;BME280;72082;52.650;8.116;2023-10-13T03:54:06;100586.88;;;16.70;100.00
29535;BME280;72082;52.650;8.116;2023-10-13T03:56:31;100593.75;;;16.71;100.00
29535;BME280;72082;52.650;8.116;2023-10-13T03:58:57;100579.91;;;16.72;100.00
29535;BME280;72082;52.650;8.116;2023-10-13T04:01:23;100577.28;;;16.74;100.00
29535;BME280;72082;52.650;8.116;2023-10-13T04:03:49;100580.69;;;16.74;100.00
29535;BME280;72082;52.650;8.116;2023-10-13T04:06:14;100581.56;;;16.75;100.00
29535;BME280;72082;52.650;8.116;2023-10-13T04:08:39;100583.25;;;16.76;100.00
29535;BME280;72082;52.650;8.116;2023-10-13T04:11:04;100580.66;;;16.76;100.00
29535;BME280;72082;52.650;8.116;2023-10-13T04:13:29;100578.94;;;16.76;100.00
29535;BME280;72082;52.650;8.116;2023-10-13T04:15:55;100570.34;;;16.74;100.00
29535;BME280;72082;52.650;8.116;2023-10-13T04:18:20;100558.31;;;16.73;100.00
29535;BME280;72082;52.650;8.116;2023-10-13T04:20:53;100550.59;;;16.72;100.00
29535;BME280;72082;52.650;8.116;2023-10-13T04:23:18;100539.50;;;16.68;100.00
29535;BME280;72082;52.650;8.116;2023-10-13T04:25:43;100552.44;;;16.68;100.00
29535;BME280;72082;52.650;8.116;2023-10-13T04:28:13;100536.09;;;16.66;100.00
29535;BME280;72082;52.650;8.116;2023-10-13T04:30:40;100535.28;;;16.65;100.00
29535;BME280;72082;52.650;8.116;2023-10-13T04:33:05;100532.72;;;16.64;100.00
29535;BME280;72082;52.650;8.116;2023-10-13T04:35:31;100536.22;;;16.63;100.00
29535;BME280;72082;52.650;8.116;2023-10-13T04:37:56;100525.88;;;16.63;100.00
29535;BME280;72082;52.650;8.116;2023-10-13T04:40:21;100527.63;;;16.61;100.00
29535;BME280;72082;52.650;8.116;2023-10-13T04:42:47;100506.16;;;16.59;100.00
29535;BME280;72082;52.650;8.116;2023-10-13T04:45:12;100509.66;;;16.58;100.00
29535;BME280;72082;52.650;8.116;2023-10-13T04:47:37;100505.34;;;16.57;100.00
29535;BME280;72082;52.650;8.116;2023-10-13T04:50:02;100489.84;;;16.57;100.00
29535;BME280;72082;52.650;8.116;2023-10-13T04:52:28;100497.66;;;16.55;100.00
29535;BME280;72082;52.650;8.116;2023-10-13T04:54:53;100496.81;;;16.55;100.00
29535;BME280;72082;52.650;8.116;2023-10-13T04:57:20;100487.31;;;16.55;100.00
29535;BME280;72082;52.650;8.116;2023-10-13T04:59:47;100484.75;;;16.54;100.00
29535;BME280;72082;52.650;8.116;2023-10-13T05:02:12;100480.44;;;16.54;100.00
29535;BME280;72082;52.650;8.116;2023-10-13T05:04:37;100484.75;;;16.54;100.00
29535;BME280;72082;52.650;8.116;2023-10-13T05:07:02;100479.56;;;16.54;100.00
29535;BME280;72082;52.650;8.116;2023-10-13T05:09:28;100477.88;;;16.53;100.00
29535;BME280;72082;52.650;8.116;2023-10-13T05:11:53;100475.25;;;16.54;100.00
29535;BME280;72082;52.650;8.116;2023-10-13T05:14:18;100468.38;;;16.53;100.00
29535;BME280;72082;52.650;8.116;2023-10-13T05:16:43;100467.53;;;16.53;100.00
29535;BME280;72082;52.650;8.116;2023-10-13T05:19:08;100466.63;;;16.54;100.00
29535;BME280;72082;52.650;8.116;2023-10-13T05:21:34;100458.88;;;16.54;100.00
29535;BME280;72082;52.650;8.116;2023-10-13T05:23:59;100457.19;;;16.53;100.00
29535;BME280;72082;52.650;8.116;2023-10-13T05:26:24;100457.19;;;16.53;100.00
29535;BME280;72082;52.650;8.116;2023-10-13T05:28:49;100452.00;;;16.53;100.00
29535;BME280;72082;52.650;8.116;2023-10-13T05:31:15;100437.34;;;16.53;100.00
29535;BME280;72082;52.650;8.116;2023-10-13T05:33:40;100447.69;;;16.53;100.00
29535;BME280;72082;52.650;8.116;2023-10-13T05:36:10;100439.06;;;16.53;100.00
29535;BME280;72082;52.650;8.116;2023-10-13T05:38:35;100438.19;;;16.54;100.00
29535;BME280;72082;52.650;8.116;2023-10-13T05:41:02;100431.31;;;16.53;100.00
29535;BME280;72082;52.650;8.116;2023-10-13T05:43:28;100435.59;;;16.54;100.00
29535;BME280;72082;52.650;8.116;2023-10-13T05:45:54;100410.63;;;16.53;100.00
29535;BME280;72082;52.650;8.116;2023-10-13T05:48:20;100408.88;;;16.53;100.00
29535;BME280;72082;52.650;8.116;2023-10-13T05:50:45;100401.97;;;16.54;100.00
29535;BME280;72082;52.650;8.116;2023-10-13T05:53:10;100402.81;;;16.54;100.00
29535;BME280;72082;52.650;8.116;2023-10-13T05:55:35;100402.81;;;16.54;100.00
29535;BME280;72082;52.650;8.116;2023-10-13T05:58:00;100393.31;;;16.55;100.00
29535;BME280;72082;52.650;8.116;2023-10-13T06:00:26;100389.00;;;16.55;100.00
29535;BME280;72082;52.650;8.116;2023-10-13T06:02:51;100373.41;;;16.57;100.00
29535;BME280;72082;52.650;8.116;2023-10-13T06:05:16;100361.34;;;16.57;100.00
29535;BME280;72082;52.650;8.116;2023-10-13T06:07:41;100365.66;;;16.57;100.00
29535;BME280;72082;52.650;8.116;2023-10-13T06:10:07;100352.66;;;16.58;100.00
29535;BME280;72082;52.650;8.116;2023-10-13T06:12:32;100352.66;;;16.58;100.00
29535;BME280;72082;52.650;8.116;2023-10-13T06:14:57;100353.50;;;16.59;100.00
29535;BME280;72082;52.650;8.116;2023-10-13T06:17:22;100347.44;;;16.60;100.00
29535;BME280;72082;52.650;8.116;2023-10-13T06:19:48;100350.03;;;16.60;100.00
29535;BME280;72082;52.650;8.116;2023-10-13T06:22:13;100344.84;;;16.60;100.00
29535;BME280;72082;52.650;8.116;2023-10-13T06:24:38;100340.53;;;16.60;100.00
29535;BME280;72082;52.650;8.116;2023-10-13T06:27:03;100333.59;;;16.61;100.00
29535;BME280;72082;52.650;8.116;2023-10-13T06:29:29;100334.44;;;16.61;100.00
29535;BME280;72082;52.650;8.116;2023-10-13T06:31:54;100332.78;;;16.60;100.00
29535;BME280;72082;52.650;8.116;2023-10-13T06:34:19;100326.69;;;16.61;100.00
29535;BME280;72082;52.650;8.116;2023-10-13T06:36:44;100323.31;;;16.59;100.00
29535;BME280;72082;52.650;8.116;2023-10-13T06:39:09;100313.84;;;16.58;100.00
29535;BME280;72082;52.650;8.116;2023-10-13T06:41:35;100313.91;;;16.57;100.00
29535;BME280;72082;52.650;8.116;2023-10-13T06:44:00;100312.22;;;16.56;100.00
29535;BME280;72082;52.650;8.116;2023-10-13T06:46:26;100300.19;;;16.55;100.00
29535;BME280;72082;52.650;8.116;2023-10-13T06:48:51;100303.66;;;16.54;100.00
29535;BME280;72082;52.650;8.116;2023-10-13T06:51:16;100304.59;;;16.51;100.00
29535;BME280;72082;52.650;8.116;2023-10-13T06:53:41;100292.53;;;16.50;100.00
29535;BME280;72082;52.650;8.116;2023-10-13T06:56:07;100297.78;;;16.49;100.00
29535;BME280;72082;52.650;8.116;2023-10-13T06:58:32;100292.66;;;16.47;100.00
29535;BME280;72082;52.650;8.116;2023-10-13T07:00:57;100306.50;;;16.46;100.00
29535;BME280;72082;52.650;8.116;2023-10-13T07:03:22;100308.19;;;16.47;100.00
29535;BME280;72082;52.650;8.116;2023-10-13T07:05:48;100303.03;;;16.47;100.00
29535;BME280;72082;52.650;8.116;2023-10-13T07:08:14;100305.53;;;16.49;100.00
29535;BME280;72082;52.650;8.116;2023-10-13T07:10:50;100300.22;;;16.53;100.00
29535;BME280;72082;52.650;8.116;2023-10-13T07:13:16;100307.84;;;16.58;100.00
29535;BME280;72082;52.650;8.116;2023-10-13T07:15:41;100309.44;;;16.62;100.00
29535;BME280;72082;52.650;8.116;2023-10-13T07:18:06;100309.31;;;16.65;100.00
29535;BME280;72082;52.650;8.116;2023-10-13T07:20:32;100322.09;;;16.70;100.00
29535;BME280;72082;52.650;8.116;2023-10-13T07:22:57;100309.91;;;16.73;100.00
29535;BME280;72082;52.650;8.116;2023-10-13T07:25:25;100309.72;;;16.78;100.00
29535;BME280;72082;52.650;8.116;2023-10-13T07:27:50;100322.50;;;16.82;100.00
29535;BME280;72082;52.650;8.116;2023-10-13T07:30:16;100333.63;;;16.84;100.00
29535;BME280;72082;52.650;8.116;2023-10-13T07:32:41;100335.31;;;16.87;100.00
29535;BME280;72082;52.650;8.116;2023-10-13T07:35:07;100320.56;;;16.89;100.00
29535;BME280;72082;52.650;8.116;2023-10-13T07:37:32;100322.09;;;16.94;100.00
29535;BME280;72082;52.650;8.116;2023-10-13T07:39:58;100322.75;;;16.99;100.00
29535;BME280;72082;52.650;8.116;2023-10-13T07:42:25;100313.09;;;17.04;100.00
29535;BME280;72082;52.650;8.116;2023-10-13T07:44:50;100328.44;;;17.09;100.00
29535;BME280;72082;52.650;8.116;2023-10-13T07:47:15;100329.03;;;17.15;100.00
29535;BME280;72082;52.650;8.116;2023-10-13T07:49:41;100321.97;;;17.20;100.00
29535;BME280;72082;52.650;8.116;2023-10-13T07:52:11;100308.00;;;17.24;100.00
29535;BME280;72082;52.650;8.116;2023-10-13T07:54:36;100308.78;;;17.26;100.00
29535;BME280;72082;52.650;8.116;2023-10-13T07:57:01;100313.00;;;17.29;100.00
29535;BME280;72082;52.650;8.116;2023-10-13T07:59:27;100320.56;;;17.35;100.00
29535;BME280;72082;52.650;8.116;2023-10-13T08:01:52;100297.06;;;17.40;100.00
29535;BME280;72082;52.650;8.116;2023-10-13T08:04:17;100301.16;;;17.45;100.00
29535;BME280;72082;52.650;8.116;2023-10-13T08:06:42;100290.69;;;17.48;100.00
29535;BME280;72082;52.650;8.116;2023-10-13T08:09:07;100300.94;;;17.51;100.00
29535;BME280;72082;52.650;8.116;2023-10-13T08:11:33;100293.13;;;17.53;100.00
29535;BME280;72082;52.650;8.116;2023-10-13T08:14:00;100297.31;;;17.57;100.00
29535;BME280;72082;52.650;8.116;2023-10-13T08:16:29;100285.00;;;17.62;100.00
29535;BME280;72082;52.650;8.116;2023-10-13T08:18:55;100276.16;;;17.67;100.00
29535;BME280;72082;52.650;8.116;2023-10-13T08:21:20;100287.09;;;17.74;100.00
29535;BME280;72082;52.650;8.116;2023-10-13T08:23:45;100283.50;;;17.78;100.00
29535;BME280;72082;52.650;8.116;2023-10-13T08:26:10;100269.69;;;17.77;100.00
29535;BME280;72082;52.650;8.116;2023-10-13T08:28:35;100267.09;;;17.77;100.00
29535;BME280;72082;52.650;8.116;2023-10-13T08:31:05;100260.09;;;17.79;100.00
29535;BME280;72082;52.650;8.116;2023-10-13T08:33:30;100266.03;;;17.83;100.00
29535;BME280;72082;52.650;8.116;2023-10-13T08:35:55;100261.53;;;17.86;100.00
29535;BME280;72082;52.650;8.116;2023-10-13T08:38:22;100251.03;;;17.89;100.00
29535;BME280;72082;52.650;8.116;2023-10-13T08:40:50;100238.84;;;17.92;100.00
29535;BME280;72082;52.650;8.116;2023-10-13T08:43:16;100238.72;;;17.95;100.00
29535;BME280;72082;52.650;8.116;2023-10-13T08:45:42;100226.44;;;18.00;100.00
29535;BME280;72082;52.650;8.116;2023-10-13T08:48:10;100221.00;;;18.06;100.00
29535;BME280;72082;52.650;8.116;2023-10-13T08:50:50;100218.06;;;18.13;100.00
29535;BME280;72082;52.650;8.116;2023-10-13T08:53:26;100202.13;;;18.22;100.00
29535;BME280;72082;52.650;8.116;2023-10-13T08:56:05;100195.69;;;18.31;100.00
29535;BME280;72082;52.650;8.116;2023-10-13T08:58:30;100196.19;;;18.39;100.00
29535;BME280;72082;52.650;8.116;2023-10-13T09:00:57;100195.00;;;18.46;100.00
29535;BME280;72082;52.650;8.116;2023-10-13T09:03:22;100212.22;;;18.48;100.00
29535;BME280;72082;52.650;8.116;2023-10-13T09:05:47;100211.31;;;18.49;100.00
29535;BME280;72082;52.650;8.116;2023-10-13T09:08:12;100201.78;;;18.50;100.00
29535;BME280;72082;52.650;8.116;2023-10-13T09:10:38;100193.94;;;18.52;100.00
29535;BME280;72082;52.650;8.116;2023-10-13T09:13:03;100193.03;;;18.53;100.00
29535;BME280;72082;52.650;8.116;2023-10-13T09:15:30;100177.31;;;18.56;100.00
29535;BME280;72082;52.650;8.116;2023-10-13T09:17:55;100184.19;;;18.57;100.00
29535;BME280;72082;52.650;8.116;2023-10-13T09:20:31;100181.53;;;18.58;100.00
29535;BME280;72082;52.650;8.116;2023-10-13T09:22:56;100182.31;;;18.60;100.00
29535;BME280;72082;52.650;8.116;2023-10-13T09:25:22;100172.63;;;18.64;100.00
29535;BME280;72082;52.650;8.116;2023-10-13T09:27:49;100186.25;;;18.69;100.00
29535;BME280;72082;52.650;8.116;2023-10-13T09:30:14;100172.28;;;18.71;100.00
29535;BME280;72082;52.650;8.116;2023-10-13T09:32:39;100168.56;;;18.77;100.00
29535;BME280;72082;52.650;8.116;2023-10-13T09:35:06;100151.03;;;18.82;100.00
29535;BME280;72082;52.650;8.116;2023-10-13T09:37:34;100142.94;;;18.88;100.00
29535;BME280;72082;52.650;8.116;2023-10-13T09:39:59;100134.72;;;18.97;100.00
29535;BME280;72082;52.650;8.116;2023-10-13T09:42:25;100128.16;;;19.07;100.00
29535;BME280;72082;52.650;8.116;2023-10-13T09:44:50;100120.72;;;19.18;100.00
29535;BME280;72082;52.650;8.116;2023-10-13T09:47:20;100120.09;;;19.30;100.00
29535;BME280;72082;52.650;8.116;2023-10-13T09:49:46;100130.91;;;19.40;100.00
29535;BME280;72082;52.650;8.116;2023-10-13T09:52:15;100127.03;;;19.48;100.00
29535;BME280;72082;52.650;8.116;2023-10-13T09:54:41;100125.81;;;19.55;100.00
29535;BME280;72082;52.650;8.116;2023-10-13T09:57:14;100129.09;;;19.59;100.00
29535;BME280;72082;52.650;8.116;2023-10-13T09:59:51;100134.00;;;19.65;100.00
29535;BME280;72082;52.650;8.116;2023-10-13T10:02:19;100126.88;;;19.68;100.00
29535;BME280;72082;52.650;8.116;2023-10-13T10:04:56;100123.81;;;19.78;100.00
29535;BME280;72082;52.650;8.116;2023-10-13T10:07:28;100119.69;;;19.91;100.00
29535;BME280;72082;52.650;8.116;2023-10-13T10:10:00;100106.28;;;19.98;100.00
29535;BME280;72082;52.650;8.116;2023-10-13T10:12:43;100092.38;;;19.99;100.00
29535;BME280;72082;52.650;8.116;2023-10-13T10:15:34;100114.06;;;19.98;100.00
29535;BME280;72082;52.650;8.116;2023-10-13T10:18:00;100098.06;;;20.06;100.00
29535;BME280;72082;52.650;8.116;2023-10-13T10:20:36;100104.47;;;20.16;100.00
29535;BME280;72082;52.650;8.116;2023-10-13T10:23:01;100108.50;;;20.21;100.00
29535;BME280;72082;52.650;8.116;2023-10-13T10:25:31;100097.88;;;20.26;100.00
29535;BME280;72082;52.650;8.116;2023-10-13T10:28:01;100121.59;;;20.37;100.00
29535;BME280;72082;52.650;8.116;2023-10-13T10:30:28;100116.72;;;20.47;100.00
29535;BME280;72082;52.650;8.116;2023-10-13T10:32:55;100097.16;;;20.55;100.00
29535;BME280;72082;52.650;8.116;2023-10-13T10:35:23;100078.69;;;20.60;100.00
29535;BME280;72082;52.650;8.116;2023-10-13T10:37:48;100091.53;;;20.63;100.00
29535;BME280;72082;52.650;8.116;2023-10-13T10:40:18;100083.66;;;20.64;100.00
29535;BME280;72082;52.650;8.116;2023-10-13T10:42:43;100082.72;;;20.65;100.00
29535;BME280;72082;52.650;8.116;2023-10-13T10:45:10;100081.06;;;20.64;100.00
29535;BME280;72082;52.650;8.116;2023-10-13T10:47:35;100088.03;;;20.64;100.00
29535;BME280;72082;52.650;8.116;2023-10-13T10:50:00;100085.41;;;20.64;100.00
29535;BME280;72082;52.650;8.116;2023-10-13T10:52:27;100068.94;;;20.63;100.00
29535;BME280;72082;52.650;8.116;2023-10-13T10:54:59;100049.13;;;20.61;100.00
29535;BME280;72082;52.650;8.116;2023-10-13T10:57:24;100059.66;;;20.59;100.00
29535;BME280;72082;52.650;8.116;2023-10-13T10:59:50;100045.78;;;20.59;100.00
29535;BME280;72082;52.650;8.116;2023-10-13T11:02:15;100065.59;;;20.61;100.00
29535;BME280;72082;52.650;8.116;2023-10-13T11:04:41;100044.59;;;20.64;100.00
29535;BME280;72082;52.650;8.116;2023-10-13T11:07:06;100047.69;;;20.71;100.00
29535;BME280;72082;52.650;8.116;2023-10-13T11:09:33;100025.69;;;20.76;100.00
29535;BME280;72082;52.650;8.116;2023-10-13T11:14:32;100041.03;;;20.81;100.00
29535;BME280;72082;52.650;8.116;2023-10-13T11:16:59;100027.94;;;20.82;100.00
29535;BME280;72082;52.650;8.116;2023-10-13T11:19:34;100027.09;;;20.82;100.00
29535;BME280;72082;52.650;8.116;2023-10-13T11:22:10;100007.13;;;20.82;100.00
29535;BME280;72082;52.650;8.116;2023-10-13T11:24:41;100008.88;;;20.82;100.00
29535;BME280;72082;52.650;8.116;2023-10-13T11:27:14;99994.16;;;20.81;100.00
29535;BME280;72082;52.650;8.116;2023-10-13T11:29:39;100006.25;;;20.82;100.00
29535;BME280;72082;52.650;8.116;2023-10-13T11:32:05;100000.03;;;20.84;100.00
29535;BME280;72082;52.650;8.116;2023-10-13T11:34:30;99996.31;;;20.88;100.00
29535;BME280;72082;52.650;8.116;2023-10-13T11:36:55;100003.22;;;20.89;100.00
29535;BME280;72082;52.650;8.116;2023-10-13T11:39:20;100001.34;;;20.91;100.00
29535;BME280;72082;52.650;8.116;2023-10-13T11:41:45;100000.34;;;20.94;100.00
29535;BME280;72082;52.650;8.116;2023-10-13T11:44:11;99998.50;;;20.96;100.00
29535;BME280;72082;52.650;8.116;2023-10-13T11:46:36;99995.25;;;20.92;100.00
29535;BME280;72082;52.650;8.116;2023-10-13T11:49:08;99973.16;;;20.84;100.00
29535;BME280;72082;52.650;8.116;2023-10-13T11:51:34;99958.72;;;20.78;100.00
29535;BME280;72082;52.650;8.116;2023-10-13T11:53:59;99960.56;;;20.76;100.00
29535;BME280;72082;52.650;8.116;2023-10-13T11:56:24;99956.09;;;20.78;100.00
29535;BME280;72082;52.650;8.116;2023-10-13T11:58:50;99936.69;;;20.84;100.00
29535;BME280;72082;52.650;8.116;2023-10-13T12:01:16;99923.97;;;20.93;100.00
29535;BME280;72082;52.650;8.116;2023-10-13T12:03:42;99926.75;;;21.06;100.00
29535;BME280;72082;52.650;8.116;2023-10-13T12:06:08;99921.63;;;21.19;100.00
29535;BME280;72082;52.650;8.116;2023-10-13T12:08:34;99909.91;;;21.40;100.00
29535;BME280;72082;52.650;8.116;2023-10-13T12:10:59;99907.00;;;21.73;100.00
29535;BME280;72082;52.650;8.116;2023-10-13T12:13:24;99912.28;;;21.85;100.00
29535;BME280;72082;52.650;8.116;2023-10-13T12:15:49;99911.75;;;21.94;100.00
29535;BME280;72082;52.650;8.116;2023-10-13T12:18:15;99879.31;;;22.38;100.00
29535;BME280;72082;52.650;8.116;2023-10-13T12:20:40;99891.16;;;22.56;100.00
29535;BME280;72082;52.650;8.116;2023-10-13T12:23:06;99873.78;;;22.69;100.00
29535;BME280;72082;52.650;8.116;2023-10-13T12:25:31;99864.19;;;22.82;100.00
29535;BME280;72082;52.650;8.116;2023-10-13T12:27:57;99867.63;;;22.83;100.00
29535;BME280;72082;52.650;8.116;2023-10-13T12:30:22;99864.69;;;22.87;100.00
29535;BME280;72082;52.650;8.116;2023-10-13T12:32:49;99858.75;;;23.10;100.00
29535;BME280;72082;52.650;8.116;2023-10-13T12:35:15;99864.31;;;23.80;100.00
29535;BME280;72082;52.650;8.116;2023-10-13T12:37:40;99858.97;;;24.05;100.00